MV Finola — OULQ2 — position and weather

sailwx.info

Track history (hours):
 
Tides and Currents Weather Stations Pressure Air Temp Water Temp Dewpoint Dewpoint Depression Visibility Wind Speed Wind Dir Waves Ship Positions

MV Finola

Last reported at 2015-Oct-30 15:18 UTC. Time now 2016-Feb-14 08:09 UTC.
Position N 22°01' E 114°22'.
Warning: this ship's position is months out of date.

Length 85 m; draft 2 m.

Type: Cargo ship. MMSI: 219483000.

Date/timePositionNaut miles runAvg speedWind from/ knotsBaromVisibWave heightAir tempDewpointWater temp
2015-Oct-30 15:18N 22°01' E 114°22'32 2.9
2015-Oct-30 04:14N 22°07' E 113°48'710.3
2015-Oct-30 03:33N 22°14' E 113°48'1110.4
2015-Oct-30 02:30N 22°25' E 113°46'18 0.9
2015-Oct-29 07:08N 22°42' E 113°41'610.8
2015-Oct-29 06:32N 22°47' E 113°37'1110.6
2015-Oct-29 05:33N 22°57' E 113°32'9 9.3
2015-Oct-29 04:32N 23°05' E 113°28'3 2.5
2015-Oct-29 03:27N 23°05' E 113°25'0 0.0
2015-Oct-29 02:21N 23°05' E 113°25'0 0.0
2015-Oct-29 01:27N 23°05' E 113°25'0 0.0
2015-Oct-29 00:33N 23°05' E 113°25'0 0.0
2015-Oct-28 23:33N 23°05' E 113°25'0 0.0
2015-Oct-28 22:09N 23°05' E 113°25'0 0.0
2015-Oct-28 21:33N 23°05' E 113°25'0 0.0
2015-Oct-28 20:33N 23°05' E 113°25'0 0.0
2015-Oct-28 19:33N 23°05' E 113°25'0 0.0
2015-Oct-28 18:33N 23°05' E 113°25'0 0.0
2015-Oct-28 17:33N 23°05' E 113°25'0 0.0
2015-Oct-28 16:27N 23°05' E 113°25'0 0.0
2015-Oct-28 15:27N 23°05' E 113°25'0 0.0
2015-Oct-28 14:33N 23°05' E 113°25'0 0.0
2015-Oct-28 13:33N 23°05' E 113°25'0 0.0
2015-Oct-28 12:15N 23°05' E 113°25'0 0.0
2015-Oct-28 11:27N 23°05' E 113°25'0 0.0
2015-Oct-28 09:33N 23°05' E 113°25'0 0.0
2015-Oct-28 08:27N 23°05' E 113°25'0 0.0
2015-Oct-28 07:33N 23°05' E 113°25'0 0.0
2015-Oct-28 06:21N 23°05' E 113°25'0 0.0
2015-Oct-28 04:29N 23°05' E 113°25'0 0.0
2015-Oct-28 03:29N 23°05' E 113°25'0 0.0
2015-Oct-28 02:29N 23°05' E 113°25'0 0.0
2015-Oct-28 01:29N 23°05' E 113°25'0 0.0
2015-Oct-28 00:11N 23°05' E 113°25'0 0.0
2015-Oct-27 23:23N 23°05' E 113°25'0 0.0
2015-Oct-27 22:29N 23°05' E 113°25'0 0.0
2015-Oct-27 21:29N 23°05' E 113°25'0 0.0
2015-Oct-27 20:29N 23°05' E 113°25'0 0.0
2015-Oct-27 19:29N 23°05' E 113°25'0 0.0
2015-Oct-27 17:29N 23°05' E 113°25'0 0.0
2015-Oct-27 16:29N 23°05' E 113°25'0 0.0
2015-Oct-27 15:29N 23°05' E 113°25'0 0.0
2015-Oct-27 14:23N 23°05' E 113°25'0 0.0
2015-Oct-27 13:23N 23°05' E 113°25'0 0.0
2015-Oct-27 12:29N 23°05' E 113°25'0 0.0
2015-Oct-27 11:23N 23°05' E 113°25'0 0.0
2015-Oct-27 10:29N 23°05' E 113°25'0 0.0
2015-Oct-27 09:29N 23°05' E 113°25'0 0.0
2015-Oct-27 08:29N 23°05' E 113°25'0 0.0
2015-Oct-27 01:29N 23°05' E 113°25'0 0.0
2015-Oct-26 23:29N 23°05' E 113°25'0 0.0
2015-Oct-26 22:23N 23°05' E 113°25'0 0.0
2015-Oct-26 21:29N 23°05' E 113°25'0 0.0
2015-Oct-26 20:23N 23°05' E 113°25'0 0.0
2015-Oct-26 19:29N 23°05' E 113°25'0 0.0
2015-Oct-26 16:10N 23°05' E 113°25'0 0.0
2015-Oct-26 15:28N 23°05' E 113°25'0 0.0
2015-Oct-26 14:28N 23°05' E 113°25'0 0.0
2015-Oct-26 13:28N 23°05' E 113°25'0 0.0
2015-Oct-26 12:28N 23°05' E 113°25'0 0.0
2015-Oct-26 11:28N 23°05' E 113°25'0 0.0
2015-Oct-26 10:28N 23°05' E 113°25'0 0.0
2015-Oct-26 09:16N 23°05' E 113°25'0 0.0
2015-Oct-26 05:33N 23°05' E 113°25'  
Track history (hours):
 
Tides and Currents Weather Stations Pressure Air Temp Water Temp Dewpoint Dewpoint Depression Visibility Wind Speed Wind Dir Waves Ship Positions

MV Finola

Last reported at 2015-Oct-30 15:18 UTC. Time now 2016-Feb-14 08:09 UTC.
Position N 22°01' E 114°22'.
Warning: this ship's position is months out of date.

Length 85 m; draft 2 m.

Type: Cargo ship. MMSI: 219483000.

Date/timePositionNaut miles runAvg speedWind from/ knotsBaromVisibWave heightAir tempDewpointWater temp
2015-Oct-30 15:18N 22°01' E 114°22'32 2.9
2015-Oct-30 04:14N 22°07' E 113°48'710.3
2015-Oct-30 03:33N 22°14' E 113°48'1110.4
2015-Oct-30 02:30N 22°25' E 113°46'18 0.9
2015-Oct-29 07:08N 22°42' E 113°41'610.8
2015-Oct-29 06:32N 22°47' E 113°37'1110.6
2015-Oct-29 05:33N 22°57' E 113°32'9 9.3
2015-Oct-29 04:32N 23°05' E 113°28'3 2.5
2015-Oct-29 03:27N 23°05' E 113°25'0 0.0
2015-Oct-29 02:21N 23°05' E 113°25'0 0.0
2015-Oct-29 01:27N 23°05' E 113°25'0 0.0
2015-Oct-29 00:33N 23°05' E 113°25'0 0.0
2015-Oct-28 23:33N 23°05' E 113°25'0 0.0
2015-Oct-28 22:09N 23°05' E 113°25'0 0.0
2015-Oct-28 21:33N 23°05' E 113°25'0 0.0
2015-Oct-28 20:33N 23°05' E 113°25'0 0.0
2015-Oct-28 19:33N 23°05' E 113°25'0 0.0
2015-Oct-28 18:33N 23°05' E 113°25'0 0.0
2015-Oct-28 17:33N 23°05' E 113°25'0 0.0
2015-Oct-28 16:27N 23°05' E 113°25'0 0.0
2015-Oct-28 15:27N 23°05' E 113°25'0 0.0
2015-Oct-28 14:33N 23°05' E 113°25'0 0.0
2015-Oct-28 13:33N 23°05' E 113°25'0 0.0
2015-Oct-28 12:15N 23°05' E 113°25'0 0.0
2015-Oct-28 11:27N 23°05' E 113°25'0 0.0
2015-Oct-28 09:33N 23°05' E 113°25'0 0.0
2015-Oct-28 08:27N 23°05' E 113°25'0 0.0
2015-Oct-28 07:33N 23°05' E 113°25'0 0.0
2015-Oct-28 06:21N 23°05' E 113°25'0 0.0
2015-Oct-28 04:29N 23°05' E 113°25'0 0.0
2015-Oct-28 03:29N 23°05' E 113°25'0 0.0
2015-Oct-28 02:29N 23°05' E 113°25'0 0.0
2015-Oct-28 01:29N 23°05' E 113°25'0 0.0
2015-Oct-28 00:11N 23°05' E 113°25'0 0.0
2015-Oct-27 23:23N 23°05' E 113°25'0 0.0
2015-Oct-27 22:29N 23°05' E 113°25'0 0.0
2015-Oct-27 21:29N 23°05' E 113°25'0 0.0
2015-Oct-27 20:29N 23°05' E 113°25'0 0.0
2015-Oct-27 19:29N 23°05' E 113°25'0 0.0
2015-Oct-27 17:29N 23°05' E 113°25'0 0.0
2015-Oct-27 16:29N 23°05' E 113°25'0 0.0
2015-Oct-27 15:29N 23°05' E 113°25'0 0.0
2015-Oct-27 14:23N 23°05' E 113°25'0 0.0
2015-Oct-27 13:23N 23°05' E 113°25'0 0.0
2015-Oct-27 12:29N 23°05' E 113°25'0 0.0
2015-Oct-27 11:23N 23°05' E 113°25'0 0.0
2015-Oct-27 10:29N 23°05' E 113°25'0 0.0
2015-Oct-27 09:29N 23°05' E 113°25'0 0.0
2015-Oct-27 08:29N 23°05' E 113°25'0 0.0
2015-Oct-27 01:29N 23°05' E 113°25'0 0.0
2015-Oct-26 23:29N 23°05' E 113°25'0 0.0
2015-Oct-26 22:23N 23°05' E 113°25'0 0.0
2015-Oct-26 21:29N 23°05' E 113°25'0 0.0
2015-Oct-26 20:23N 23°05' E 113°25'0 0.0
2015-Oct-26 19:29N 23°05' E 113°25'0 0.0
2015-Oct-26 16:10N 23°05' E 113°25'0 0.0
2015-Oct-26 15:28N 23°05' E 113°25'0 0.0
2015-Oct-26 14:28N 23°05' E 113°25'0 0.0
2015-Oct-26 13:28N 23°05' E 113°25'0 0.0
2015-Oct-26 12:28N 23°05' E 113°25'0 0.0
2015-Oct-26 11:28N 23°05' E 113°25'0 0.0
2015-Oct-26 10:28N 23°05' E 113°25'0 0.0
2015-Oct-26 09:16N 23°05' E 113°25'0 0.0
2015-Oct-26 05:33N 23°05' E 113°25'  

Dump ship's entire track history